createdAt,value
2022-08-31T00:00:33.611Z,7.45
2022-08-31T00:03:19.474Z,6.63
2022-08-31T00:05:47.295Z,6.47
2022-08-31T00:08:14.618Z,6.60
2022-08-31T00:10:45.033Z,7.53
2022-08-31T00:13:12.487Z,7.75
2022-08-31T00:15:39.950Z,8.13
2022-08-31T00:18:07.845Z,7.75
2022-08-31T00:20:36.162Z,8.43
2022-08-31T00:23:10.099Z,8.10
2022-08-31T00:25:39.411Z,7.75
2022-08-31T00:28:07.476Z,8.00
2022-08-31T00:30:35.008Z,8.60
2022-08-31T00:33:02.888Z,8.32
2022-08-31T00:35:33.696Z,8.38
2022-08-31T00:38:00.831Z,7.82
2022-08-31T00:40:28.446Z,8.15
2022-08-31T00:42:55.741Z,7.53
2022-08-31T00:45:24.341Z,7.60
2022-08-31T00:47:51.924Z,8.80
2022-08-31T00:50:21.359Z,7.65
2022-08-31T00:52:58.338Z,7.38
2022-08-31T00:55:34.113Z,7.85
2022-08-31T00:58:06.531Z,6.78
2022-08-31T01:00:34.444Z,7.18
2022-08-31T01:03:03.809Z,6.55
2022-08-31T01:05:31.453Z,5.95
2022-08-31T01:08:00.204Z,5.88
2022-08-31T01:10:35.058Z,5.60
2022-08-31T01:13:02.688Z,5.80
2022-08-31T01:15:31.522Z,5.82
2022-08-31T01:18:05.437Z,5.22
2022-08-31T01:21:16.410Z,5.28
2022-08-31T01:23:45.370Z,4.65
2022-08-31T01:26:17.635Z,4.25
2022-08-31T01:28:46.988Z,4.20
2022-08-31T01:31:37.342Z,4.20
2022-08-31T01:34:04.732Z,4.45
2022-08-31T01:36:33.968Z,4.22
2022-08-31T01:39:01.033Z,4.60
2022-08-31T01:41:28.082Z,4.05
2022-08-31T01:43:55.525Z,4.07
2022-08-31T01:46:23.125Z,3.80
2022-08-31T01:48:50.418Z,3.20
2022-08-31T01:51:20.907Z,3.03
2022-08-31T01:53:51.401Z,3.35
2022-08-31T01:56:28.666Z,4.03
2022-08-31T01:58:58.931Z,3.58
2022-08-31T02:01:47.691Z,4.15
2022-08-31T02:04:18.217Z,3.83
2022-08-31T02:06:48.983Z,4.32
2022-08-31T02:09:18.649Z,4.32
2022-08-31T02:11:45.851Z,4.10
2022-08-31T02:14:13.244Z,3.92
2022-08-31T02:16:41.606Z,4.57
2022-08-31T02:19:09.328Z,4.00
2022-08-31T02:21:37.581Z,4.00
2022-08-31T02:24:06.164Z,4.32
2022-08-31T02:26:33.665Z,3.78
2022-08-31T02:29:00.877Z,4.28
2022-08-31T02:31:27.949Z,4.22
2022-08-31T02:34:00.223Z,3.92
2022-08-31T02:36:27.284Z,3.75
2022-08-31T02:38:55.183Z,4.07
2022-08-31T02:41:23.273Z,3.90
2022-08-31T02:43:51.347Z,4.15
2022-08-31T02:46:19.218Z,4.22
2022-08-31T02:49:04.257Z,4.10
2022-08-31T02:51:31.384Z,3.67
2022-08-31T02:53:58.496Z,4.80
2022-08-31T02:56:26.005Z,4.20
2022-08-31T02:58:54.896Z,5.10
2022-08-31T03:01:24.069Z,4.43
2022-08-31T03:03:51.462Z,4.78
2022-08-31T03:06:19.938Z,5.40
2022-08-31T03:08:47.233Z,4.65
2022-08-31T03:11:15.607Z,4.75
2022-08-31T03:13:43.355Z,4.70
2022-08-31T03:16:14.460Z,4.40
2022-08-31T03:18:42.623Z,5.20
2022-08-31T03:21:09.759Z,5.07
2022-08-31T03:23:37.406Z,5.28
2022-08-31T03:26:05.998Z,4.93
2022-08-31T03:28:34.638Z,4.75
2022-08-31T03:31:20.369Z,5.72
2022-08-31T03:33:47.701Z,5.30
2022-08-31T03:36:15.957Z,5.38
2022-08-31T03:38:43.185Z,5.45
2022-08-31T03:41:12.492Z,6.30
2022-08-31T03:43:40.026Z,6.00
2022-08-31T03:46:11.941Z,6.78
2022-08-31T03:48:43.167Z,6.72
2022-08-31T03:51:10.830Z,6.43
2022-08-31T03:53:38.131Z,7.10
2022-08-31T03:56:08.869Z,7.72
2022-08-31T03:58:40.812Z,7.53
2022-08-31T04:01:10.905Z,7.35
2022-08-31T04:03:58.021Z,7.80
2022-08-31T04:06:45.607Z,7.28
2022-08-31T04:09:31.508Z,7.53
2022-08-31T04:12:19.023Z,8.20
2022-08-31T04:15:05.641Z,7.72
2022-08-31T04:17:52.176Z,7.32
2022-08-31T04:20:43.675Z,7.43
2022-08-31T04:23:11.330Z,7.72
2022-08-31T04:25:46.128Z,6.38
2022-08-31T04:28:13.461Z,7.25
2022-08-31T04:30:44.075Z,7.20
2022-08-31T04:33:15.957Z,6.53
2022-08-31T04:35:43.755Z,7.15
2022-08-31T04:38:12.194Z,7.50
2022-08-31T04:40:43.774Z,7.43
2022-08-31T04:43:11.502Z,8.15
2022-08-31T04:45:44.600Z,7.43
2022-08-31T04:48:16.191Z,6.85
2022-08-31T04:50:43.693Z,6.63
2022-08-31T04:53:11.649Z,6.90
2022-08-31T04:55:41.202Z,7.10
2022-08-31T04:58:13.183Z,6.30
2022-08-31T05:00:43.994Z,6.40
2022-08-31T05:03:40.884Z,6.93
2022-08-31T05:06:20.155Z,6.20
2022-08-31T05:08:55.444Z,6.60
2022-08-31T05:11:36.751Z,5.90
2022-08-31T05:14:07.720Z,6.22
2022-08-31T05:16:41.004Z,6.28
2022-08-31T05:19:09.812Z,6.68
2022-08-31T05:21:40.295Z,5.93
2022-08-31T05:24:14.749Z,6.20
2022-08-31T05:26:50.388Z,5.72
2022-08-31T05:29:24.140Z,6.90
2022-08-31T05:31:58.881Z,6.35
2022-08-31T05:34:26.656Z,6.50
2022-08-31T05:36:55.949Z,7.00
2022-08-31T05:39:24.369Z,7.00
2022-08-31T05:41:51.570Z,6.38
2022-08-31T05:44:21.283Z,5.88
2022-08-31T05:46:57.249Z,5.38
2022-08-31T05:49:33.050Z,5.70
2022-08-31T05:52:01.454Z,5.50
2022-08-31T05:54:30.127Z,6.07
2022-08-31T05:56:59.905Z,6.53
2022-08-31T05:59:31.283Z,5.63
2022-08-31T06:01:59.591Z,6.35
2022-08-31T06:04:29.028Z,6.63
2022-08-31T06:06:57.918Z,6.65
2022-08-31T06:09:29.719Z,7.65
2022-08-31T06:11:56.958Z,7.03
2022-08-31T06:14:24.004Z,7.55
2022-08-31T06:16:55.629Z,6.70
2022-08-31T06:19:24.200Z,6.95
2022-08-31T06:21:52.979Z,6.80
2022-08-31T06:24:25.750Z,6.60
2022-08-31T06:26:58.869Z,6.78
2022-08-31T06:29:32.867Z,6.53
2022-08-31T06:32:08.075Z,7.13
2022-08-31T06:34:38.807Z,6.30
2022-08-31T06:37:07.735Z,5.72
2022-08-31T06:40:10.833Z,5.82
2022-08-31T06:42:56.461Z,5.13
2022-08-31T06:45:48.463Z,4.95
2022-08-31T06:48:34.849Z,5.60
2022-08-31T06:51:03.001Z,5.78
2022-08-31T06:53:30.556Z,4.88
2022-08-31T06:56:34.955Z,5.22
2022-08-31T06:59:37.068Z,6.20
2022-08-31T07:02:24.269Z,4.97
2022-08-31T07:04:51.305Z,5.00
2022-08-31T07:07:18.355Z,5.47
2022-08-31T07:09:45.559Z,5.32
2022-08-31T07:12:12.573Z,5.70
2022-08-31T07:14:39.801Z,5.70
2022-08-31T07:17:08.442Z,6.28
2022-08-31T07:19:36.761Z,9.25
2022-08-31T07:22:09.450Z,11.18
2022-08-31T07:24:43.054Z,9.80
2022-08-31T07:27:16.497Z,10.80
2022-08-31T07:29:52.168Z,8.80
2022-08-31T07:32:20.139Z,7.63
2022-08-31T07:34:57.405Z,9.10
2022-08-31T07:37:57.616Z,7.47
2022-08-31T07:40:48.084Z,7.43
2022-08-31T07:43:16.086Z,7.40
2022-08-31T07:45:44.562Z,7.07
2022-08-31T07:48:19.681Z,7.47
2022-08-31T07:51:03.410Z,6.63
2022-08-31T07:53:55.141Z,6.45
2022-08-31T07:56:35.024Z,7.47
2022-08-31T07:59:11.395Z,8.00
2022-08-31T08:01:41.421Z,8.65
2022-08-31T08:04:13.817Z,6.68
2022-08-31T08:07:00.580Z,6.53
2022-08-31T08:09:55.249Z,6.28
2022-08-31T08:12:48.445Z,5.80
2022-08-31T08:15:36.355Z,5.57
2022-08-31T08:18:05.399Z,5.30
2022-08-31T08:20:40.259Z,5.25
2022-08-31T08:23:14.624Z,5.15
2022-08-31T08:26:07.121Z,5.32
2022-08-31T08:28:57.184Z,4.82
2022-08-31T08:31:29.160Z,5.10
2022-08-31T08:33:56.707Z,4.43
2022-08-31T08:36:24.840Z,4.70
2022-08-31T08:38:54.196Z,4.57
2022-08-31T08:41:27.781Z,4.43
2022-08-31T08:43:58.974Z,4.38
2022-08-31T08:46:37.649Z,4.15
2022-08-31T08:49:15.486Z,5.20
2022-08-31T08:51:45.197Z,4.30
2022-08-31T08:54:25.598Z,4.70
2022-08-31T08:56:52.872Z,4.60
2022-08-31T08:59:20.916Z,4.78
2022-08-31T09:01:52.783Z,4.97
2022-08-31T09:04:49.366Z,5.20
2022-08-31T09:08:05.223Z,5.50
2022-08-31T09:11:01.968Z,5.90
2022-08-31T09:13:32.794Z,6.45
2022-08-31T09:16:17.620Z,5.95
2022-08-31T09:19:08.927Z,6.07
2022-08-31T09:21:43.327Z,6.57
2022-08-31T09:24:13.696Z,5.93
2022-08-31T09:27:17.855Z,5.22
2022-08-31T09:29:56.767Z,5.82
2022-08-31T09:32:26.929Z,5.65
2022-08-31T09:35:03.725Z,4.65
2022-08-31T09:37:33.800Z,4.78
2022-08-31T09:40:36.567Z,4.65
2022-08-31T09:43:13.902Z,4.97
2022-08-31T09:46:05.470Z,4.63
2022-08-31T09:48:44.310Z,4.35
2022-08-31T09:51:28.397Z,4.78
2022-08-31T09:54:46.627Z,4.53
2022-08-31T09:57:14.376Z,4.85
2022-08-31T09:59:48.161Z,4.35
2022-08-31T10:02:38.194Z,4.38
2022-08-31T10:05:26.003Z,4.75
2022-08-31T10:08:10.058Z,4.85
2022-08-31T10:10:41.158Z,4.15
2022-08-31T10:13:25.882Z,4.20
2022-08-31T10:15:58.355Z,4.38
2022-08-31T10:18:42.305Z,3.92
2022-08-31T10:21:38.509Z,4.25
2022-08-31T10:24:20.797Z,4.38
2022-08-31T10:26:53.276Z,3.67
2022-08-31T10:29:51.610Z,3.97
2022-08-31T10:32:30.595Z,4.15
2022-08-31T10:35:06.180Z,3.40
2022-08-31T10:37:37.283Z,3.53
2022-08-31T10:40:13.218Z,3.92
2022-08-31T10:42:50.333Z,3.60
2022-08-31T10:45:19.081Z,4.30
2022-08-31T10:47:49.385Z,3.65
2022-08-31T10:50:24.165Z,3.88
2022-08-31T10:53:03.051Z,3.70
2022-08-31T10:55:54.074Z,4.07
2022-08-31T10:58:36.801Z,3.22
2022-08-31T11:01:29.093Z,3.47
2022-08-31T11:04:20.135Z,4.35
2022-08-31T11:07:08.934Z,3.47
2022-08-31T11:09:44.036Z,4.28
2022-08-31T11:12:18.631Z,3.88
2022-08-31T11:14:45.958Z,4.05
2022-08-31T11:17:45.441Z,3.63
2022-08-31T11:20:41.063Z,3.83
2022-08-31T11:23:16.940Z,3.20
2022-08-31T11:25:47.507Z,3.90
2022-08-31T11:28:29.173Z,4.18
2022-08-31T11:30:56.578Z,4.50
2022-08-31T11:33:28.402Z,4.38
2022-08-31T11:36:07.369Z,4.10
2022-08-31T11:38:54.708Z,4.50
2022-08-31T11:41:33.402Z,4.75
2022-08-31T11:44:04.823Z,4.75
2022-08-31T11:46:40.066Z,5.43
2022-08-31T11:49:10.964Z,5.05
2022-08-31T11:51:46.474Z,4.85
2022-08-31T11:54:26.713Z,4.38
2022-08-31T11:56:57.140Z,5.00
2022-08-31T11:59:35.382Z,4.60
2022-08-31T12:02:23.753Z,5.22
2022-08-31T12:04:53.856Z,5.07
2022-08-31T12:07:36.650Z,5.13
2022-08-31T12:10:18.612Z,5.35
2022-08-31T12:13:07.940Z,5.47
2022-08-31T12:16:08.974Z,5.03
2022-08-31T12:18:57.977Z,4.78
2022-08-31T12:22:15.911Z,5.00
2022-08-31T12:25:07.773Z,5.15
2022-08-31T12:27:46.734Z,4.97
2022-08-31T12:30:22.766Z,4.95
2022-08-31T12:32:58.250Z,4.65
2022-08-31T12:35:31.758Z,4.85
2022-08-31T12:38:16.553Z,4.40
2022-08-31T12:40:47.943Z,5.72
2022-08-31T12:43:43.913Z,5.65
2022-08-31T12:46:53.112Z,4.78
2022-08-31T12:49:47.401Z,4.50
2022-08-31T12:52:27.429Z,4.00
2022-08-31T12:55:09.238Z,4.30
2022-08-31T12:57:58.826Z,4.82
2022-08-31T13:00:39.493Z,4.18
2022-08-31T13:03:18.121Z,3.70
2022-08-31T13:06:13.718Z,3.30
2022-08-31T13:08:45.176Z,4.25
2022-08-31T13:11:34.949Z,3.65
2022-08-31T13:14:12.630Z,3.85
2022-08-31T13:17:01.091Z,3.40
2022-08-31T13:19:32.891Z,3.38
2022-08-31T13:22:06.845Z,3.58
2022-08-31T13:24:46.061Z,3.50
2022-08-31T13:27:23.882Z,3.47
2022-08-31T13:29:53.483Z,3.53
2022-08-31T13:32:31.733Z,3.38
2022-08-31T13:35:04.153Z,3.50
2022-08-31T13:37:37.854Z,3.00
2022-08-31T13:40:12.536Z,2.70
2022-08-31T13:42:45.504Z,3.20
2022-08-31T13:45:25.214Z,3.60
2022-08-31T13:48:14.402Z,3.25
2022-08-31T13:50:53.456Z,3.67
2022-08-31T13:53:39.928Z,3.85
2022-08-31T13:56:41.605Z,3.30
2022-08-31T13:59:29.149Z,3.75
2022-08-31T14:02:16.571Z,3.75
2022-08-31T14:05:00.415Z,4.07
2022-08-31T14:07:40.909Z,4.10
2022-08-31T14:10:19.865Z,3.92
2022-08-31T14:12:53.975Z,3.72
2022-08-31T14:15:21.188Z,4.05
2022-08-31T14:21:23.714Z,3.97
2022-08-31T14:24:09.146Z,3.50
2022-08-31T14:26:41.818Z,3.65
2022-08-31T14:29:12.463Z,3.20
2022-08-31T14:31:45.559Z,3.60
2022-08-31T14:34:22.517Z,3.47
2022-08-31T14:37:02.552Z,3.92
2022-08-31T14:39:42.492Z,3.20
2022-08-31T14:42:17.397Z,3.75
2022-08-31T14:44:53.874Z,3.70
2022-08-31T14:47:21.490Z,4.05
2022-08-31T14:49:49.295Z,3.53
2022-08-31T14:52:17.416Z,2.97
2022-08-31T14:54:46.118Z,3.13
2022-08-31T14:57:22.334Z,3.20
2022-08-31T14:59:52.618Z,3.35
2022-08-31T15:02:21.362Z,4.28
2022-08-31T15:04:48.905Z,3.50
2022-08-31T15:07:17.620Z,3.58
2022-08-31T15:09:50.278Z,3.50
2022-08-31T15:12:17.996Z,3.92
2022-08-31T15:14:47.349Z,3.70
2022-08-31T15:17:19.470Z,3.70
2022-08-31T15:19:50.497Z,4.30
2022-08-31T15:22:18.306Z,4.38
2022-08-31T15:24:45.632Z,4.95
2022-08-31T15:27:15.563Z,4.68
2022-08-31T15:29:43.996Z,4.75
2022-08-31T15:32:11.642Z,4.43
2022-08-31T15:34:38.989Z,3.75
2022-08-31T15:37:07.364Z,4.18
2022-08-31T15:39:48.981Z,4.30
2022-08-31T15:42:20.861Z,4.20
2022-08-31T15:44:56.241Z,5.07
2022-08-31T15:47:43.847Z,5.32
2022-08-31T15:50:11.464Z,5.93
2022-08-31T15:52:47.401Z,4.93
2022-08-31T15:55:23.641Z,5.30
2022-08-31T15:57:54.293Z,5.13
2022-08-31T16:00:27.349Z,5.05
2022-08-31T16:02:57.431Z,4.90
2022-08-31T16:05:28.507Z,6.07
2022-08-31T16:07:57.370Z,5.57
2022-08-31T16:10:27.795Z,5.88
2022-08-31T16:12:55.487Z,5.10
2022-08-31T16:15:24.848Z,5.30
2022-08-31T16:17:57.522Z,5.75
2022-08-31T16:20:27.455Z,5.78
2022-08-31T16:22:54.835Z,5.88
2022-08-31T16:25:22.113Z,5.10
2022-08-31T16:27:49.925Z,5.93
2022-08-31T16:30:17.174Z,5.45
2022-08-31T16:32:46.418Z,5.97
2022-08-31T16:35:15.309Z,6.10
2022-08-31T16:37:42.388Z,5.68
2022-08-31T16:40:10.281Z,6.03
2022-08-31T16:42:37.428Z,6.15
2022-08-31T16:45:04.983Z,6.30
2022-08-31T16:47:32.302Z,6.57
2022-08-31T16:50:03.728Z,5.82
2022-08-31T16:52:32.345Z,5.70
2022-08-31T16:54:59.694Z,6.22
2022-08-31T16:57:29.647Z,6.28
2022-08-31T16:59:58.348Z,6.28
2022-08-31T17:02:26.709Z,6.57
2022-08-31T17:04:54.437Z,6.80
2022-08-31T17:07:24.151Z,6.88
2022-08-31T17:09:56.009Z,7.22
2022-08-31T17:12:26.090Z,6.88
2022-08-31T17:14:53.728Z,7.88
2022-08-31T17:17:24.039Z,8.43
2022-08-31T17:19:56.207Z,8.43
2022-08-31T17:22:31.879Z,8.10
2022-08-31T17:25:03.105Z,8.38
2022-08-31T17:27:33.243Z,9.20
2022-08-31T17:30:01.251Z,9.68
2022-08-31T17:32:29.202Z,10.77
2022-08-31T17:34:56.718Z,10.18
2022-08-31T17:37:32.898Z,10.90
2022-08-31T17:40:00.536Z,11.07
2022-08-31T17:42:28.717Z,10.68
2022-08-31T17:44:56.776Z,11.65
2022-08-31T17:47:25.463Z,12.25
2022-08-31T17:49:53.739Z,12.18
2022-08-31T17:52:21.901Z,12.70
2022-08-31T17:54:51.127Z,13.85
2022-08-31T17:57:30.174Z,13.13
2022-08-31T17:59:57.592Z,15.10
2022-08-31T18:02:32.751Z,14.23
2022-08-31T18:05:01.121Z,14.45
2022-08-31T18:07:28.754Z,15.65
2022-08-31T18:09:55.914Z,14.40
2022-08-31T18:12:25.776Z,15.27
2022-08-31T18:14:54.036Z,17.02
2022-08-31T18:17:24.407Z,15.80
2022-08-31T18:19:51.472Z,17.25
2022-08-31T18:22:19.933Z,16.80
2022-08-31T18:24:47.195Z,16.30
2022-08-31T18:27:17.542Z,17.58
2022-08-31T18:29:45.447Z,17.33
2022-08-31T18:32:13.135Z,18.90
2022-08-31T18:34:47.475Z,18.17
2022-08-31T18:37:24.491Z,17.13
2022-08-31T18:40:10.738Z,17.75
2022-08-31T18:42:57.437Z,19.58
2022-08-31T18:45:26.913Z,20.10
2022-08-31T18:50:47.688Z,22.48
2022-08-31T18:53:28.479Z,22.27
2022-08-31T18:56:10.801Z,25.42
2022-08-31T18:58:38.992Z,24.40
2022-08-31T19:01:11.474Z,26.02
2022-08-31T19:03:39.454Z,28.25
2022-08-31T19:06:07.250Z,26.23
2022-08-31T19:08:35.019Z,22.52
2022-08-31T19:11:07.228Z,24.02
2022-08-31T19:13:34.558Z,22.25
2022-08-31T19:16:10.679Z,24.00
2022-08-31T19:18:44.179Z,25.30
2022-08-31T19:21:17.546Z,24.85
2022-08-31T19:23:45.723Z,24.65
2022-08-31T19:26:29.640Z,24.80
2022-08-31T19:28:57.962Z,26.75
2022-08-31T19:31:27.489Z,28.10
2022-08-31T19:33:57.776Z,31.63
2022-08-31T19:36:27.800Z,26.40
2022-08-31T19:38:56.169Z,24.77
2022-08-31T19:41:25.375Z,26.55
2022-08-31T19:44:03.077Z,24.92
2022-08-31T19:46:34.889Z,31.98
2022-08-31T19:49:03.327Z,30.15
2022-08-31T19:51:31.423Z,29.63
2022-08-31T19:54:00.971Z,34.10
2022-08-31T19:56:31.207Z,35.35
2022-08-31T19:59:00.097Z,35.47
2022-08-31T20:01:34.177Z,34.33
2022-08-31T20:04:04.294Z,38.08
2022-08-31T20:06:31.826Z,39.63
2022-08-31T20:08:59.309Z,35.50
2022-08-31T20:11:29.460Z,31.13
2022-08-31T20:13:58.649Z,31.90
2022-08-31T20:16:33.887Z,35.50
2022-08-31T20:19:04.929Z,33.80
2022-08-31T20:21:35.016Z,31.63
2022-08-31T20:24:06.374Z,28.80
2022-08-31T20:26:37.757Z,26.33
2022-08-31T20:29:13.764Z,33.78
2022-08-31T20:31:45.045Z,32.65
2022-08-31T20:34:19.481Z,33.10
2022-08-31T20:36:50.238Z,33.25
2022-08-31T20:39:19.717Z,30.92
2022-08-31T20:41:49.324Z,34.28
2022-08-31T20:44:30.949Z,32.42
2022-08-31T20:47:20.077Z,34.88
2022-08-31T20:49:53.760Z,32.30
2022-08-31T20:52:23.782Z,28.30
2022-08-31T20:54:54.335Z,29.00
2022-08-31T20:57:29.956Z,28.73
2022-08-31T20:59:57.076Z,28.52
2022-08-31T21:02:24.524Z,31.02
2022-08-31T21:04:51.549Z,28.50
2022-08-31T21:07:23.252Z,27.13
2022-08-31T21:09:51.126Z,29.58
2022-08-31T21:12:18.950Z,28.60
2022-08-31T21:14:48.471Z,28.65
2022-08-31T21:17:16.006Z,27.25
2022-08-31T21:19:44.165Z,32.50
2022-08-31T21:22:14.574Z,27.95
2022-08-31T21:24:43.414Z,30.58
2022-08-31T21:27:13.773Z,33.47
2022-08-31T21:29:41.448Z,35.90
2022-08-31T21:32:10.513Z,41.10
2022-08-31T21:34:38.055Z,41.03
2022-08-31T21:37:07.682Z,40.55
2022-08-31T21:39:34.813Z,40.33
2022-08-31T21:42:04.067Z,38.85
2022-08-31T21:44:31.384Z,43.15
2022-08-31T21:46:58.369Z,45.33
2022-08-31T21:49:25.556Z,47.58
2022-08-31T21:51:55.496Z,42.40
2022-08-31T21:54:26.144Z,45.60
2022-08-31T21:56:56.043Z,40.90
2022-08-31T21:59:24.949Z,47.05
2022-08-31T22:01:57.411Z,40.78
2022-08-31T22:04:24.978Z,42.03
2022-08-31T22:06:53.849Z,39.22
2022-08-31T22:09:23.109Z,40.45
2022-08-31T22:11:54.066Z,38.33
2022-08-31T22:14:28.273Z,40.17
2022-08-31T22:16:58.073Z,39.40
2022-08-31T22:19:27.173Z,35.35
2022-08-31T22:21:59.142Z,36.47
2022-08-31T22:24:32.358Z,41.10
2022-08-31T22:27:03.573Z,37.90
2022-08-31T22:29:33.147Z,44.90
2022-08-31T22:32:04.645Z,48.15
2022-08-31T22:34:31.629Z,51.50
2022-08-31T22:36:58.624Z,55.50
2022-08-31T22:39:29.162Z,50.60
2022-08-31T22:41:57.528Z,45.80
2022-08-31T22:44:26.768Z,54.28
2022-08-31T22:46:56.326Z,47.08
2022-08-31T22:49:23.568Z,51.58
2022-08-31T22:51:50.615Z,45.78
2022-08-31T22:54:19.423Z,45.67
2022-08-31T22:56:48.108Z,49.17
2022-08-31T22:59:21.083Z,43.63
2022-08-31T23:01:55.085Z,47.50
2022-08-31T23:04:25.327Z,40.95
2022-08-31T23:06:52.891Z,44.90
2022-08-31T23:09:22.213Z,44.22
2022-08-31T23:11:53.286Z,52.95
2022-08-31T23:14:21.314Z,52.13
2022-08-31T23:16:59.186Z,52.13
2022-08-31T23:19:37.201Z,44.72
2022-08-31T23:22:09.447Z,43.35
2022-08-31T23:24:47.374Z,46.63
2022-08-31T23:27:18.757Z,40.42
2022-08-31T23:29:52.777Z,40.20
2022-08-31T23:32:27.548Z,39.97
2022-08-31T23:34:57.172Z,41.08
2022-08-31T23:37:26.030Z,42.25
2022-08-31T23:39:54.697Z,47.88
2022-08-31T23:42:23.653Z,44.85
2022-08-31T23:44:51.285Z,44.25
2022-08-31T23:47:22.173Z,42.17
2022-08-31T23:49:53.443Z,49.17
2022-08-31T23:52:26.409Z,39.50
2022-08-31T23:55:00.908Z,38.95
2022-08-31T23:57:32.033Z,40.92
